createdAt,value
2018-12-23T00:00:02.998Z,799.96
2018-12-23T00:00:07.282Z,799.91
2018-12-23T00:00:11.471Z,799.93
2018-12-23T00:00:15.822Z,799.94
2018-12-23T00:00:20.141Z,799.92
2018-12-23T00:00:24.430Z,799.93
2018-12-23T00:00:28.721Z,799.92
2018-12-23T00:00:33.009Z,799.9
2018-12-23T00:00:37.296Z,799.93
2018-12-23T00:00:43.765Z,799.92
2018-12-23T00:00:48.165Z,799.9
2018-12-23T00:00:52.455Z,799.89
2018-12-23T00:00:56.748Z,799.91
2018-12-23T00:01:00.952Z,799.88
2018-12-23T00:01:05.338Z,799.86
2018-12-23T00:01:09.632Z,799.91
2018-12-23T00:01:13.727Z,799.88
2018-12-23T00:01:18.019Z,799.87
2018-12-23T00:01:22.311Z,799.87
2018-12-23T00:01:26.603Z,799.9
2018-12-23T00:01:30.903Z,799.87
2018-12-23T00:01:35.191Z,799.89
2018-12-23T00:01:39.486Z,799.86
2018-12-23T00:01:43.858Z,799.83
2018-12-23T00:01:48.057Z,799.83
2018-12-23T00:01:52.355Z,799.81
2018-12-23T00:01:56.658Z,799.85
2018-12-23T00:02:00.944Z,799.83
2018-12-23T00:02:05.244Z,799.81
2018-12-23T00:02:09.534Z,799.77
2018-12-23T00:02:13.850Z,799.78
2018-12-23T00:02:18.138Z,799.77
2018-12-23T00:02:22.430Z,799.81
2018-12-23T00:02:26.719Z,799.8
2018-12-23T00:02:31.021Z,799.79
2018-12-23T00:02:35.310Z,799.8
2018-12-23T00:02:39.599Z,799.75
2018-12-23T00:02:43.895Z,799.79
2018-12-23T00:02:48.182Z,799.76
2018-12-23T00:02:52.475Z,799.77
2018-12-23T00:02:56.761Z,799.72
2018-12-23T00:03:01.065Z,799.73
2018-12-23T00:03:05.352Z,799.74
2018-12-23T00:03:09.639Z,799.72
2018-12-23T00:03:13.925Z,799.73
2018-12-23T00:03:18.211Z,799.72
2018-12-23T00:03:22.498Z,799.71
2018-12-23T00:03:26.693Z,799.69
2018-12-23T00:03:30.989Z,799.72
2018-12-23T00:03:35.278Z,799.71
2018-12-23T00:03:39.587Z,799.64
2018-12-23T00:03:43.878Z,799.65
2018-12-23T00:03:48.171Z,799.7
2018-12-23T00:03:52.463Z,799.68
2018-12-23T00:03:56.656Z,799.7
2018-12-23T00:04:00.935Z,799.62
2018-12-23T00:04:05.229Z,799.64
2018-12-23T00:04:09.520Z,799.66
2018-12-23T00:04:13.804Z,799.63
2018-12-23T00:04:18.094Z,799.66
2018-12-23T00:04:22.281Z,799.65
2018-12-23T00:04:26.579Z,799.64
2018-12-23T00:04:30.870Z,799.63
2018-12-23T00:04:35.157Z,799.6
2018-12-23T00:04:39.442Z,799.59
2018-12-23T00:04:43.749Z,799.59
2018-12-23T00:04:48.037Z,799.58
2018-12-23T00:04:52.326Z,799.6
2018-12-23T00:04:56.623Z,799.59
2018-12-23T00:05:00.909Z,799.61
2018-12-23T00:05:13.578Z,799.6
2018-12-23T00:05:17.779Z,799.56
2018-12-23T00:05:21.971Z,799.57
2018-12-23T00:05:26.263Z,799.58
2018-12-23T00:05:30.550Z,799.56
2018-12-23T00:05:34.833Z,799.55
2018-12-23T00:05:39.124Z,799.55
2018-12-23T00:05:43.410Z,799.54
2018-12-23T00:05:47.778Z,799.51
2018-12-23T00:05:52.081Z,799.53
2018-12-23T00:05:56.373Z,799.47
2018-12-23T00:06:00.669Z,799.5
2018-12-23T00:06:05.008Z,799.47
2018-12-23T00:06:09.297Z,799.44
2018-12-23T00:06:13.593Z,799.44
2018-12-23T00:06:17.885Z,799.45
2018-12-23T00:06:22.205Z,799.44
2018-12-23T00:06:26.491Z,799.44
2018-12-23T00:06:30.783Z,799.45
2018-12-23T00:06:35.069Z,799.42
2018-12-23T00:06:39.364Z,799.45
2018-12-23T00:06:43.689Z,799.44
2018-12-23T00:06:47.980Z,799.43
2018-12-23T00:06:52.267Z,799.43
2018-12-23T00:06:56.370Z,799.44
2018-12-23T00:07:00.663Z,799.39
2018-12-23T00:07:04.953Z,799.41
2018-12-23T00:07:09.143Z,799.32
2018-12-23T00:07:13.434Z,799.33
2018-12-23T00:07:17.721Z,799.35
2018-12-23T00:07:21.918Z,799.4
2018-12-23T00:07:26.125Z,799.35
2018-12-23T00:07:30.319Z,799.38
2018-12-23T00:07:34.606Z,799.3
2018-12-23T00:07:38.903Z,799.36
2018-12-23T00:07:43.094Z,799.35
2018-12-23T00:07:47.387Z,799.32
2018-12-23T00:07:51.672Z,799.33
2018-12-23T00:07:55.963Z,799.33
2018-12-23T00:08:00.267Z,799.31
2018-12-23T00:08:04.602Z,799.26
2018-12-23T00:08:08.890Z,799.29
2018-12-23T00:08:13.176Z,799.28
2018-12-23T00:08:17.268Z,799.27
2018-12-23T00:08:21.463Z,799.22
2018-12-23T00:08:25.753Z,799.24
2018-12-23T00:08:30.036Z,799.26
2018-12-23T00:08:34.323Z,799.22
2018-12-23T00:08:38.608Z,799.22
2018-12-23T00:08:42.898Z,799.14
2018-12-23T00:08:47.184Z,799.16
2018-12-23T00:08:51.473Z,799.12
2018-12-23T00:08:55.755Z,799.15
2018-12-23T00:09:00.040Z,799.19
2018-12-23T00:09:04.328Z,799.14
2018-12-23T00:09:08.616Z,799.14
2018-12-23T00:09:12.903Z,799.12
2018-12-23T00:09:17.093Z,799.15
2018-12-23T00:09:21.378Z,799.19
2018-12-23T00:09:25.697Z,799.17
2018-12-23T00:09:29.986Z,799.09
2018-12-23T00:09:34.276Z,799.15
2018-12-23T00:09:38.571Z,799.13
2018-12-23T00:09:42.857Z,799.12
2018-12-23T00:09:47.148Z,799.13
2018-12-23T00:09:51.438Z,799.09
2018-12-23T00:09:55.632Z,799.15
2018-12-23T00:09:59.928Z,799.11
2018-12-23T00:10:04.273Z,799.12
2018-12-23T00:10:08.559Z,799.09
2018-12-23T00:10:12.847Z,799.14
2018-12-23T00:10:17.174Z,799.12
2018-12-23T00:10:21.461Z,799.06
2018-12-23T00:10:25.740Z,799.06
2018-12-23T00:10:30.024Z,799.08
2018-12-23T00:10:34.311Z,799.06
2018-12-23T00:10:38.605Z,799.07
2018-12-23T00:10:42.899Z,799.04
2018-12-23T00:10:47.187Z,799.06
2018-12-23T00:10:51.477Z,799.05
2018-12-23T00:10:55.862Z,799.06
2018-12-23T00:11:00.150Z,799.09
2018-12-23T00:11:04.437Z,799.11
2018-12-23T00:11:08.818Z,799.11
2018-12-23T00:11:13.106Z,799.1
2018-12-23T00:11:17.398Z,799.1
2018-12-23T00:11:21.689Z,799.08
2018-12-23T00:11:25.974Z,799.09
2018-12-23T00:11:30.164Z,799.07
2018-12-23T00:11:34.447Z,799.1
2018-12-23T00:11:38.742Z,799.06
2018-12-23T00:11:43.030Z,799.08
2018-12-23T00:11:47.323Z,799.08
2018-12-23T00:11:51.612Z,799.07
2018-12-23T00:11:55.897Z,799.02
2018-12-23T00:12:00.192Z,799.03
2018-12-23T00:12:04.482Z,799.04
2018-12-23T00:12:08.675Z,799.04
2018-12-23T00:12:12.961Z,799.04
2018-12-23T00:12:17.283Z,799.03
2018-12-23T00:12:21.583Z,799.04
2018-12-23T00:12:25.870Z,799.04
2018-12-23T00:12:30.160Z,799.04
2018-12-23T00:12:34.448Z,799.08
2018-12-23T00:12:38.636Z,799.05
2018-12-23T00:12:42.828Z,799.05
2018-12-23T00:12:47.017Z,799.01
2018-12-23T00:12:51.306Z,799.04
2018-12-23T00:12:55.595Z,798.97
2018-12-23T00:12:59.784Z,798.97
2018-12-23T00:13:04.142Z,799.01
2018-12-23T00:13:08.433Z,798.99
2018-12-23T00:13:12.715Z,799
2018-12-23T00:13:17.009Z,799.03
2018-12-23T00:13:21.199Z,799.03
2018-12-23T00:13:25.491Z,798.99
2018-12-23T00:13:29.789Z,799.02
2018-12-23T00:13:34.073Z,798.99
2018-12-23T00:13:38.455Z,799.03
2018-12-23T00:13:42.656Z,799.01
2018-12-23T00:13:46.944Z,799.01
2018-12-23T00:13:51.138Z,799.02
2018-12-23T00:13:55.422Z,799.01
2018-12-23T00:13:59.717Z,799.04
2018-12-23T00:14:04.001Z,799.06
2018-12-23T00:14:08.289Z,799.03
2018-12-23T00:14:12.480Z,799.03
2018-12-23T00:14:16.764Z,799.04
2018-12-23T00:14:21.060Z,799.03
2018-12-23T00:14:25.347Z,799.01
2018-12-23T00:14:29.550Z,799.02
2018-12-23T00:14:33.645Z,799.03
2018-12-23T00:14:37.934Z,799.03
2018-12-23T00:14:42.224Z,799
2018-12-23T00:14:46.513Z,799.03
2018-12-23T00:14:50.711Z,799.03
2018-12-23T00:14:54.906Z,799.01
2018-12-23T00:14:59.200Z,799
2018-12-23T00:15:03.494Z,799.01
2018-12-23T00:15:07.782Z,798.99
2018-12-23T00:15:12.072Z,798.99
2018-12-23T00:15:16.370Z,799.01
2018-12-23T00:15:20.657Z,798.99
2018-12-23T00:15:24.942Z,798.95
2018-12-23T00:15:29.236Z,799
2018-12-23T00:15:33.526Z,798.93
2018-12-23T00:15:37.717Z,798.95
2018-12-23T00:15:42.052Z,798.94
2018-12-23T00:15:46.340Z,798.94
2018-12-23T00:15:50.624Z,798.92
2018-12-23T00:15:54.915Z,798.92
2018-12-23T00:15:59.217Z,798.9
2018-12-23T00:16:03.506Z,798.9
2018-12-23T00:16:07.794Z,798.91
2018-12-23T00:16:12.088Z,798.88
2018-12-23T00:16:16.385Z,798.88
2018-12-23T00:16:20.668Z,798.87
2018-12-23T00:16:24.965Z,798.9
2018-12-23T00:16:29.247Z,798.93
2018-12-23T00:16:33.531Z,798.89
2018-12-23T00:16:37.906Z,798.9
2018-12-23T00:16:42.202Z,798.87
2018-12-23T00:16:46.489Z,798.86
2018-12-23T00:16:50.770Z,798.84
2018-12-23T00:16:55.061Z,798.86
2018-12-23T00:16:59.347Z,798.85
2018-12-23T00:17:03.646Z,798.85
2018-12-23T00:17:07.934Z,798.83
2018-12-23T00:17:12.219Z,798.83
2018-12-23T00:17:16.510Z,798.83
2018-12-23T00:17:20.797Z,798.82
2018-12-23T00:17:25.090Z,798.83
2018-12-23T00:17:29.379Z,798.81
2018-12-23T00:17:33.662Z,798.83
2018-12-23T00:17:37.951Z,798.8
2018-12-23T00:17:42.244Z,798.77
2018-12-23T00:17:46.531Z,798.75
2018-12-23T00:17:50.915Z,798.76
2018-12-23T00:17:55.199Z,798.77
2018-12-23T00:17:59.481Z,798.71
2018-12-23T00:18:03.770Z,798.72
2018-12-23T00:18:08.058Z,798.76
2018-12-23T00:18:12.349Z,798.74
2018-12-23T00:18:16.648Z,798.71
2018-12-23T00:18:20.844Z,798.7
2018-12-23T00:18:25.153Z,798.7
2018-12-23T00:18:29.439Z,798.69
2018-12-23T00:18:33.764Z,798.73
2018-12-23T00:19:10.062Z,798.67
2018-12-23T00:19:14.351Z,798.65
2018-12-23T00:19:18.636Z,798.65
2018-12-23T00:19:22.916Z,798.66
2018-12-23T00:19:27.105Z,798.67
2018-12-23T00:19:31.392Z,798.67
2018-12-23T00:19:35.676Z,798.67
2018-12-23T00:19:39.980Z,798.68
2018-12-23T00:19:44.270Z,798.64
2018-12-23T00:19:48.473Z,798.63
2018-12-23T00:19:52.758Z,798.66
2018-12-23T00:19:56.943Z,798.62
2018-12-23T00:20:01.236Z,798.65
2018-12-23T00:20:05.526Z,798.66
2018-12-23T00:20:09.816Z,798.66
2018-12-23T00:20:14.104Z,798.61
2018-12-23T00:20:18.387Z,798.55
2018-12-23T00:20:22.681Z,798.55
2018-12-23T00:20:26.973Z,798.6
2018-12-23T00:20:31.265Z,798.59
2018-12-23T00:20:35.551Z,798.61
2018-12-23T00:20:39.743Z,798.58
2018-12-23T00:20:44.069Z,798.58
2018-12-23T00:20:48.159Z,798.53
2018-12-23T00:20:52.458Z,798.57
2018-12-23T00:20:56.742Z,798.53
2018-12-23T00:21:03.112Z,798.52
2018-12-23T00:21:07.316Z,798.58
2018-12-23T00:21:11.609Z,798.54
2018-12-23T00:21:15.900Z,798.5
2018-12-23T00:21:20.199Z,798.49
2018-12-23T00:21:24.591Z,798.49
2018-12-23T00:21:28.883Z,798.44
2018-12-23T00:21:33.167Z,798.48
2018-12-23T00:21:37.357Z,798.45
2018-12-23T00:21:41.649Z,798.43
2018-12-23T00:21:45.941Z,798.47
2018-12-23T00:21:50.234Z,798.46
2018-12-23T00:21:54.530Z,798.47
2018-12-23T00:21:58.820Z,798.42
2018-12-23T00:22:03.011Z,798.47
2018-12-23T00:22:07.212Z,798.42
2018-12-23T00:22:11.405Z,798.44
2018-12-23T00:22:15.698Z,798.42
2018-12-23T00:22:19.987Z,798.38
2018-12-23T00:22:24.291Z,798.41
2018-12-23T00:22:28.575Z,798.41
2018-12-23T00:22:32.868Z,798.39
2018-12-23T00:22:37.158Z,798.35
2018-12-23T00:22:41.471Z,798.36
2018-12-23T00:22:45.667Z,798.36
2018-12-23T00:22:50.059Z,798.4
2018-12-23T00:22:54.348Z,798.34
2018-12-23T00:22:58.746Z,798.36
2018-12-23T00:23:03.038Z,798.34
2018-12-23T00:23:07.431Z,798.3
2018-12-23T00:23:11.719Z,798.33
2018-12-23T00:23:16.004Z,798.34
2018-12-23T00:23:20.293Z,798.28
2018-12-23T00:23:24.688Z,798.31
2018-12-23T00:23:28.975Z,798.34
2018-12-23T00:23:33.313Z,798.34
2018-12-23T00:23:37.603Z,798.3
2018-12-23T00:23:41.799Z,798.28
2018-12-23T00:23:46.092Z,798.32
2018-12-23T00:23:50.284Z,798.29
2018-12-23T00:23:54.576Z,798.31
2018-12-23T00:23:58.782Z,798.28
2018-12-23T00:24:03.142Z,798.31
2018-12-23T00:24:07.433Z,798.29
2018-12-23T00:24:11.722Z,798.21
2018-12-23T00:24:16.009Z,798.27
2018-12-23T00:24:20.202Z,798.25
2018-12-23T00:24:24.489Z,798.24
2018-12-23T00:24:28.779Z,798.25
2018-12-23T00:24:33.073Z,798.25
2018-12-23T00:24:37.360Z,798.26
2018-12-23T00:24:41.653Z,798.25
2018-12-23T00:24:45.936Z,798.26
2018-12-23T00:24:50.227Z,798.23
2018-12-23T00:24:54.516Z,798.27
2018-12-23T00:24:58.800Z,798.26
2018-12-23T00:25:02.998Z,798.22
2018-12-23T00:25:07.192Z,798.27
2018-12-23T00:25:11.506Z,798.24
2018-12-23T00:25:15.799Z,798.23
2018-12-23T00:25:19.986Z,798.21
2018-12-23T00:25:24.088Z,798.21
2018-12-23T00:25:28.380Z,798.18
2018-12-23T00:25:32.670Z,798.19
2018-12-23T00:25:37.054Z,798.21
2018-12-23T00:25:41.346Z,798.17
2018-12-23T00:25:45.637Z,798.17
2018-12-23T00:25:49.930Z,798.17
2018-12-23T00:25:54.214Z,798.19
2018-12-23T00:25:58.511Z,798.16
2018-12-23T00:26:02.900Z,798.13
2018-12-23T00:26:07.098Z,798.13
2018-12-23T00:26:11.301Z,798.13
2018-12-23T00:26:15.596Z,798.11
2018-12-23T00:26:19.980Z,798.11
2018-12-23T00:26:24.273Z,798.12
2018-12-23T00:26:28.566Z,798.11
2018-12-23T00:26:32.852Z,798.08
2018-12-23T00:26:37.142Z,798.13
2018-12-23T00:26:41.427Z,798.1
2018-12-23T00:26:45.716Z,798.1
2018-12-23T00:26:50.005Z,798.08
2018-12-23T00:26:56.237Z,798.04
2018-12-23T00:27:00.481Z,798.07
2018-12-23T00:27:04.774Z,798.03
2018-12-23T00:27:09.069Z,798.04
2018-12-23T00:27:13.359Z,798.05
2018-12-23T00:27:17.650Z,798.05
2018-12-23T00:27:21.935Z,798.01
2018-12-23T00:27:26.161Z,798.05
2018-12-23T00:27:30.358Z,798
2018-12-23T00:27:34.642Z,798.01
2018-12-23T00:27:38.939Z,798.05
2018-12-23T00:27:43.228Z,798.06
2018-12-23T00:27:47.526Z,798.03
2018-12-23T00:27:51.830Z,798.04
2018-12-23T00:27:56.118Z,798.05
2018-12-23T00:28:00.411Z,798.03
2018-12-23T00:28:04.845Z,797.97
2018-12-23T00:28:09.158Z,797.99
2018-12-23T00:28:13.454Z,797.99
2018-12-23T00:28:17.859Z,798.01
2018-12-23T00:28:22.150Z,797.98
2018-12-23T00:28:26.341Z,797.98
2018-12-23T00:28:30.628Z,797.97
2018-12-23T00:28:34.951Z,797.92
2018-12-23T00:28:39.235Z,797.94
2018-12-23T00:28:43.532Z,797.93
2018-12-23T00:28:47.825Z,797.96
2018-12-23T00:28:52.107Z,797.95
2018-12-23T00:28:56.394Z,797.94
2018-12-23T00:29:00.490Z,797.92
2018-12-23T00:29:04.782Z,797.92
2018-12-23T00:29:09.077Z,797.93
2018-12-23T00:29:13.451Z,797.94
2018-12-23T00:29:17.744Z,797.9
2018-12-23T00:29:22.041Z,797.92
2018-12-23T00:29:26.331Z,797.88
2018-12-23T00:29:30.717Z,797.87
2018-12-23T00:29:35.004Z,797.86
2018-12-23T00:29:39.293Z,797.83
2018-12-23T00:29:43.291Z,797.82
2018-12-23T00:29:47.580Z,797.8
2018-12-23T00:29:51.917Z,797.81
2018-12-23T00:29:56.205Z,797.83
2018-12-23T00:30:00.492Z,797.82
2018-12-23T00:30:04.882Z,797.76
2018-12-23T00:30:09.173Z,797.79
2018-12-23T00:30:13.459Z,797.77
2018-12-23T00:30:17.745Z,797.78
2018-12-23T00:30:22.109Z,797.76
2018-12-23T00:30:26.392Z,797.78
2018-12-23T00:30:30.774Z,797.8
2018-12-23T00:30:35.066Z,797.75
2018-12-23T00:30:39.423Z,797.76
2018-12-23T00:30:43.717Z,797.78
2018-12-23T00:30:48.008Z,797.77
2018-12-23T00:30:52.304Z,797.77
2018-12-23T00:30:56.703Z,797.77
2018-12-23T00:31:00.986Z,797.73
2018-12-23T00:31:05.390Z,797.76
2018-12-23T00:31:09.686Z,797.7
2018-12-23T00:31:13.982Z,797.76
2018-12-23T00:31:18.269Z,797.74
2018-12-23T00:31:22.565Z,797.73
2018-12-23T00:31:26.856Z,797.73
2018-12-23T00:31:31.143Z,797.74
2018-12-23T00:31:35.441Z,797.72
2018-12-23T00:31:39.731Z,797.69
2018-12-23T00:31:44.033Z,797.71
2018-12-23T00:31:48.318Z,797.69
2018-12-23T00:31:52.605Z,797.71
2018-12-23T00:31:56.894Z,797.7
2018-12-23T00:32:01.185Z,797.69
2018-12-23T00:32:05.486Z,797.71
2018-12-23T00:32:09.782Z,797.7
2018-12-23T00:32:14.074Z,797.71
2018-12-23T00:32:18.489Z,797.68
2018-12-23T00:32:22.781Z,797.67
2018-12-23T00:32:27.078Z,797.68
2018-12-23T00:32:31.271Z,797.66
2018-12-23T00:32:35.566Z,797.69
2018-12-23T00:32:39.856Z,797.7
2018-12-23T00:32:44.144Z,797.68
2018-12-23T00:32:48.373Z,797.67
2018-12-23T00:32:52.667Z,797.68
2018-12-23T00:32:56.863Z,797.67
2018-12-23T00:33:01.157Z,797.68
2018-12-23T00:33:05.602Z,797.66
2018-12-23T00:33:09.894Z,797.66
2018-12-23T00:33:14.188Z,797.67
2018-12-23T00:33:18.471Z,797.66
2018-12-23T00:33:22.761Z,797.67
2018-12-23T00:33:29.193Z,797.66
2018-12-23T00:33:33.486Z,797.67
2018-12-23T00:33:37.779Z,797.66
2018-12-23T00:33:42.071Z,797.63
2018-12-23T00:33:46.363Z,797.61
2018-12-23T00:33:50.662Z,797.63
2018-12-23T00:33:54.950Z,797.62
2018-12-23T00:33:59.238Z,797.58
2018-12-23T00:34:03.641Z,797.66
2018-12-23T00:34:07.838Z,797.64
2018-12-23T00:34:12.133Z,797.62
2018-12-23T00:34:16.458Z,797.63
2018-12-23T00:34:20.759Z,797.61
2018-12-23T00:34:25.113Z,797.63
2018-12-23T00:34:29.405Z,797.65
2018-12-23T00:34:33.699Z,797.6
2018-12-23T00:34:38.058Z,797.62
2018-12-23T00:34:42.248Z,797.6
2018-12-23T00:34:46.535Z,797.61
2018-12-23T00:34:50.833Z,797.58
2018-12-23T00:34:55.121Z,797.63
2018-12-23T00:34:59.412Z,797.63
2018-12-23T00:35:40.038Z,797.59
2018-12-23T00:35:44.230Z,797.56
2018-12-23T00:35:48.518Z,797.58
2018-12-23T00:35:52.803Z,797.56
2018-12-23T00:35:57.101Z,797.57
2018-12-23T00:36:01.399Z,797.54
2018-12-23T00:36:05.708Z,797.5
2018-12-23T00:36:09.996Z,797.55
2018-12-23T00:36:14.286Z,797.54
2018-12-23T00:36:18.573Z,797.49
2018-12-23T00:36:22.863Z,797.49
2018-12-23T00:36:27.157Z,797.53
2018-12-23T00:36:31.443Z,797.51
2018-12-23T00:36:35.733Z,797.49
2018-12-23T00:36:40.139Z,797.51
2018-12-23T00:36:44.428Z,797.5
2018-12-23T00:36:48.720Z,797.53
2018-12-23T00:36:53.011Z,797.53
2018-12-23T00:36:57.305Z,797.51
2018-12-23T00:37:01.597Z,797.55
2018-12-23T00:37:06.002Z,797.51
2018-12-23T00:37:10.298Z,797.5
2018-12-23T00:37:14.590Z,797.51
2018-12-23T00:37:18.883Z,797.45
2018-12-23T00:37:23.087Z,797.41
2018-12-23T00:37:27.383Z,797.45
2018-12-23T00:37:31.675Z,797.48
2018-12-23T00:37:35.975Z,797.47
2018-12-23T00:37:40.341Z,797.43
2018-12-23T00:37:44.639Z,797.43
2018-12-23T00:37:48.940Z,797.43
2018-12-23T00:37:53.233Z,797.44
2018-12-23T00:37:57.528Z,797.42
2018-12-23T00:38:01.822Z,797.42
2018-12-23T00:38:06.109Z,797.48
2018-12-23T00:38:10.418Z,797.43
2018-12-23T00:38:14.713Z,797.47
2018-12-23T00:38:19.002Z,797.44
2018-12-23T00:38:23.293Z,797.47
2018-12-23T00:38:27.593Z,797.45
2018-12-23T00:38:31.884Z,797.44
2018-12-23T00:38:36.177Z,797.45
2018-12-23T00:38:40.472Z,797.45
2018-12-23T00:38:44.667Z,797.48
2018-12-23T00:38:48.957Z,797.46
2018-12-23T00:38:53.252Z,797.45
2018-12-23T00:38:57.541Z,797.44
2018-12-23T00:39:01.888Z,797.43
2018-12-23T00:39:06.193Z,797.45
2018-12-23T00:39:10.495Z,797.4
2018-12-23T00:39:14.787Z,797.49
2018-12-23T00:39:19.073Z,797.43
2018-12-23T00:39:23.360Z,797.46
2018-12-23T00:39:27.557Z,797.45
2018-12-23T00:39:31.847Z,797.44
2018-12-23T00:39:36.139Z,797.44
2018-12-23T00:39:40.434Z,797.43
2018-12-23T00:39:44.721Z,797.43
2018-12-23T00:39:49.005Z,797.47
2018-12-23T00:39:53.288Z,797.46
2018-12-23T00:39:57.578Z,797.48
2018-12-23T00:40:02.023Z,797.42
2018-12-23T00:40:06.293Z,797.45
2018-12-23T00:40:10.578Z,797.45
2018-12-23T00:40:14.865Z,797.47
2018-12-23T00:40:19.158Z,797.46
2018-12-23T00:40:23.550Z,797.46
2018-12-23T00:40:27.645Z,797.42
2018-12-23T00:40:31.938Z,797.43
2018-12-23T00:40:36.126Z,797.45
2018-12-23T00:40:40.437Z,797.5
2018-12-23T00:40:44.739Z,797.46
2018-12-23T00:40:49.026Z,797.47
2018-12-23T00:40:53.319Z,797.49
2018-12-23T00:40:57.520Z,797.5
2018-12-23T00:41:01.835Z,797.46
2018-12-23T00:41:06.121Z,797.48
2018-12-23T00:41:10.415Z,797.5
2018-12-23T00:41:14.702Z,797.52
2018-12-23T00:41:19.087Z,797.45
2018-12-23T00:41:23.381Z,797.47
2018-12-23T00:41:27.795Z,797.46
2018-12-23T00:41:32.084Z,797.45
2018-12-23T00:41:38.178Z,797.48
2018-12-23T00:41:42.468Z,797.48
2018-12-23T00:41:46.569Z,797.47
2018-12-23T00:41:50.763Z,797.47
2018-12-23T00:41:55.055Z,797.46
2018-12-23T00:41:59.346Z,797.47
2018-12-23T00:42:03.723Z,797.46
2018-12-23T00:42:08.023Z,797.46
2018-12-23T00:42:12.312Z,797.46
2018-12-23T00:42:16.604Z,797.48
2018-12-23T00:42:20.923Z,797.44
2018-12-23T00:42:25.129Z,797.46
2018-12-23T00:42:29.436Z,797.42
2018-12-23T00:42:33.723Z,797.45
2018-12-23T00:42:38.028Z,797.49
2018-12-23T00:42:42.320Z,797.39
2018-12-23T00:42:46.519Z,797.4
2018-12-23T00:42:50.803Z,797.48
2018-12-23T00:42:55.098Z,797.46
2018-12-23T00:42:59.401Z,797.43
2018-12-23T00:43:03.700Z,797.45
2018-12-23T00:43:07.989Z,797.49
2018-12-23T00:43:12.278Z,797.45
2018-12-23T00:43:16.649Z,797.5
2018-12-23T00:43:20.847Z,797.47
2018-12-23T00:43:25.138Z,797.44
2018-12-23T00:43:29.426Z,797.48
2018-12-23T00:43:33.657Z,797.42
2018-12-23T00:43:37.921Z,797.47
2018-12-23T00:43:42.126Z,797.45
2018-12-23T00:43:46.226Z,797.48
2018-12-23T00:43:50.518Z,797.44
2018-12-23T00:43:54.813Z,797.41
2018-12-23T00:43:59.100Z,797.44
2018-12-23T00:44:03.396Z,797.4
2018-12-23T00:44:07.686Z,797.41
2018-12-23T00:44:11.978Z,797.41
2018-12-23T00:44:16.265Z,797.38
2018-12-23T00:44:20.561Z,797.41
2018-12-23T00:44:24.858Z,797.39
2018-12-23T00:44:29.150Z,797.4
2018-12-23T00:44:33.443Z,797.4
2018-12-23T00:44:37.736Z,797.42
2018-12-23T00:44:42.025Z,797.44
2018-12-23T00:44:46.314Z,797.44
2018-12-23T00:44:50.620Z,797.44
2018-12-23T00:44:54.910Z,797.43
2018-12-23T00:44:59.197Z,797.38
2018-12-23T00:45:03.623Z,797.42
2018-12-23T00:45:07.921Z,797.4
2018-12-23T00:45:12.214Z,797.42
2018-12-23T00:45:16.472Z,797.43
2018-12-23T00:45:20.779Z,797.43
2018-12-23T00:45:25.061Z,797.43
2018-12-23T00:45:29.356Z,797.43
2018-12-23T00:45:33.552Z,797.43
2018-12-23T00:45:37.842Z,797.46
2018-12-23T00:45:42.138Z,797.43
2018-12-23T00:45:46.434Z,797.44
2018-12-23T00:45:50.534Z,797.45
2018-12-23T00:45:54.820Z,797.45
2018-12-23T00:45:59.138Z,797.44
2018-12-23T00:46:03.437Z,797.46
2018-12-23T00:46:07.733Z,797.46
2018-12-23T00:46:12.018Z,797.46
2018-12-23T00:46:16.307Z,797.48
2018-12-23T00:46:20.592Z,797.46
2018-12-23T00:46:24.781Z,797.46
2018-12-23T00:46:29.068Z,797.48
2018-12-23T00:46:33.355Z,797.49
2018-12-23T00:46:37.655Z,797.48
2018-12-23T00:46:41.946Z,797.5
2018-12-23T00:46:46.238Z,797.48
2018-12-23T00:46:50.438Z,797.49
2018-12-23T00:46:54.626Z,797.53
2018-12-23T00:46:58.910Z,797.51
2018-12-23T00:47:03.305Z,797.51
2018-12-23T00:47:07.612Z,797.54
2018-12-23T00:47:11.899Z,797.53
2018-12-23T00:47:16.188Z,797.54
2018-12-23T00:47:20.482Z,797.48
2018-12-23T00:47:24.767Z,797.55
2018-12-23T00:47:28.965Z,797.56
2018-12-23T00:47:33.162Z,797.54
2018-12-23T00:47:37.454Z,797.57
2018-12-23T00:47:41.742Z,797.57
2018-12-23T00:47:46.027Z,797.58
2018-12-23T00:47:50.322Z,797.57
2018-12-23T00:47:54.615Z,797.57
2018-12-23T00:47:58.903Z,797.59
2018-12-23T00:48:03.191Z,797.58
2018-12-23T00:48:07.484Z,797.57
2018-12-23T00:48:11.771Z,797.61
2018-12-23T00:48:16.067Z,797.58
2018-12-23T00:48:20.360Z,797.56
2018-12-23T00:48:24.556Z,797.61
2018-12-23T00:48:28.843Z,797.61
2018-12-23T00:48:33.134Z,797.61
2018-12-23T00:48:37.331Z,797.59
2018-12-23T00:48:41.635Z,797.63
2018-12-23T00:48:45.932Z,797.61
2018-12-23T00:48:50.139Z,797.6
2018-12-23T00:48:54.436Z,797.59
2018-12-23T00:48:58.726Z,797.55
2018-12-23T00:49:03.020Z,797.62
2018-12-23T00:49:07.309Z,797.61
2018-12-23T00:49:11.598Z,797.55
2018-12-23T00:49:15.888Z,797.6
2018-12-23T00:49:20.173Z,797.62
2018-12-23T00:49:24.461Z,797.66
2018-12-23T00:49:28.751Z,797.64
2018-12-23T00:49:33.037Z,797.66
2018-12-23T00:49:37.331Z,797.65
2018-12-23T00:49:41.617Z,797.64
2018-12-23T00:49:45.907Z,797.7
2018-12-23T00:49:50.193Z,797.68
2018-12-23T00:49:54.286Z,797.64
2018-12-23T00:49:58.573Z,797.63
2018-12-23T00:50:02.861Z,797.64
2018-12-23T00:50:07.054Z,797.66
2018-12-23T00:50:11.246Z,797.63
2018-12-23T00:50:15.539Z,797.66
2018-12-23T00:50:19.822Z,797.65
2018-12-23T00:50:24.115Z,797.66
2018-12-23T00:50:28.410Z,797.65
2018-12-23T00:50:32.701Z,797.66
2018-12-23T00:50:37.064Z,797.68
2018-12-23T00:50:41.350Z,797.65
2018-12-23T00:50:45.635Z,797.62
2018-12-23T00:50:49.929Z,797.62
2018-12-23T00:50:54.218Z,797.65
2018-12-23T00:50:58.508Z,797.67
2018-12-23T00:51:02.947Z,797.6
2018-12-23T00:51:07.238Z,797.6
2018-12-23T00:51:11.528Z,797.59
2018-12-23T00:51:15.819Z,797.6
2018-12-23T00:51:20.040Z,797.6
2018-12-23T00:51:24.227Z,797.6
2018-12-23T00:51:28.517Z,797.62
2018-12-23T00:51:32.909Z,797.61
2018-12-23T00:51:37.201Z,797.59
2018-12-23T00:51:41.486Z,797.61
2018-12-23T00:51:45.780Z,797.65
2018-12-23T00:51:50.075Z,797.59
2018-12-23T00:51:54.360Z,797.57
2018-12-23T00:51:58.652Z,797.56
2018-12-23T00:52:02.838Z,797.57
2018-12-23T00:52:07.146Z,797.59
2018-12-23T00:52:11.450Z,797.6
2018-12-23T00:52:15.837Z,797.58
2018-12-23T00:52:20.127Z,797.63
2018-12-23T00:52:24.417Z,797.61
2018-12-23T00:52:28.719Z,797.65
2018-12-23T00:52:32.907Z,797.62
2018-12-23T00:52:37.102Z,797.6
2018-12-23T00:52:41.396Z,797.61
2018-12-23T00:52:45.681Z,797.6
2018-12-23T00:52:49.971Z,797.56
2018-12-23T00:52:54.285Z,797.55
2018-12-23T00:52:58.475Z,797.55
2018-12-23T00:53:02.882Z,797.53
2018-12-23T00:53:07.173Z,797.56
2018-12-23T00:53:11.512Z,797.55
2018-12-23T00:53:15.819Z,797.53
2018-12-23T00:53:20.108Z,797.54
2018-12-23T00:53:24.394Z,797.52
2018-12-23T00:53:28.592Z,797.54
2018-12-23T00:53:32.879Z,797.53
2018-12-23T00:53:36.984Z,797.5
2018-12-23T00:53:41.272Z,797.53
2018-12-23T00:53:45.561Z,797.5
2018-12-23T00:53:49.846Z,797.45
2018-12-23T00:53:54.142Z,797.53
2018-12-23T00:53:58.434Z,797.55
2018-12-23T00:54:02.735Z,797.54
2018-12-23T00:54:07.106Z,797.47
2018-12-23T00:54:11.400Z,797.46
2018-12-23T00:54:15.689Z,797.45
2018-12-23T00:54:19.976Z,797.52
2018-12-23T00:54:24.261Z,797.5
2018-12-23T00:54:28.549Z,797.49
2018-12-23T00:54:32.836Z,797.49
2018-12-23T00:54:37.123Z,797.48
2018-12-23T00:54:41.406Z,797.48
2018-12-23T00:54:45.600Z,797.49
2018-12-23T00:54:49.897Z,797.5
2018-12-23T00:54:54.244Z,797.48
2018-12-23T00:54:58.532Z,797.45
2018-12-23T00:55:02.652Z,797.49
2018-12-23T00:55:07.034Z,797.47